createdAt,value
2022-07-29T00:02:37.383Z,999.2
2022-07-29T00:05:05.563Z,999.2
2022-07-29T00:07:33.815Z,999.1
2022-07-29T00:10:02.062Z,999.1
2022-07-29T00:12:30.305Z,999.1
2022-07-29T00:15:35.683Z,999.1
2022-07-29T00:18:03.877Z,999.1
2022-07-29T00:20:32.151Z,999.1
2022-07-29T00:23:37.402Z,999.2
2022-07-29T00:26:05.685Z,999.1
2022-07-29T00:28:33.986Z,999.1
2022-07-29T00:31:39.306Z,999.1
2022-07-29T00:33:59.300Z,999.1
2022-07-29T00:36:27.546Z,999.1
2022-07-29T00:39:32.870Z,999.1
2022-07-29T00:42:01.097Z,999.1
2022-07-29T00:44:29.346Z,999.1
2022-07-29T00:47:34.666Z,999
2022-07-29T00:50:02.943Z,999
2022-07-29T00:52:31.206Z,998.9
2022-07-29T00:55:36.499Z,999
2022-07-29T00:58:04.746Z,999
2022-07-29T01:00:33.009Z,999
2022-07-29T01:03:01.221Z,999
2022-07-29T01:05:48.362Z,998.9
2022-07-29T01:08:34.813Z,998.9
2022-07-29T01:11:03.012Z,998.9
2022-07-29T01:13:31.277Z,998.8
2022-07-29T01:16:36.721Z,998.9
2022-07-29T01:19:04.810Z,998.9
2022-07-29T01:21:33.045Z,998.9
2022-07-29T01:24:01.353Z,998.8
2022-07-29T01:26:29.567Z,998.9
2022-07-29T01:29:35.909Z,998.8
2022-07-29T01:31:59.685Z,998.8
2022-07-29T01:34:23.246Z,998.8
2022-07-29T01:37:28.494Z,998.8
2022-07-29T01:40:33.812Z,998.7
2022-07-29T01:43:02.064Z,998.7
2022-07-29T01:45:30.304Z,998.7
2022-07-29T01:48:35.799Z,998.6
2022-07-29T01:51:03.881Z,998.7
2022-07-29T01:53:34.902Z,998.7
2022-07-29T01:56:37.403Z,998.7
2022-07-29T01:59:06.140Z,998.8
2022-07-29T02:01:34.070Z,998.8
2022-07-29T02:04:02.194Z,998.8
2022-07-29T02:06:30.388Z,998.8
2022-07-29T02:09:35.711Z,998.8
2022-07-29T02:12:04.023Z,998.8
2022-07-29T02:14:32.237Z,998.8
2022-07-29T02:17:38.914Z,998.7
2022-07-29T02:20:05.780Z,998.7
2022-07-29T02:22:34.068Z,998.7
2022-07-29T02:25:03.203Z,998.7
2022-07-29T02:27:30.489Z,998.6
2022-07-29T02:30:35.826Z,998.7
2022-07-29T02:32:55.896Z,998.7
2022-07-29T02:35:24.133Z,998.7
2022-07-29T02:38:29.427Z,998.7
2022-07-29T02:41:34.787Z,998.7
2022-07-29T02:44:03.012Z,998.7
2022-07-29T02:46:31.267Z,998.6
2022-07-29T02:49:36.574Z,998.7
2022-07-29T02:52:04.828Z,998.7
2022-07-29T02:54:33.067Z,998.8
2022-07-29T02:57:01.310Z,998.8
2022-07-29T02:59:29.577Z,998.8
2022-07-29T03:02:34.871Z,998.7
2022-07-29T03:05:03.163Z,998.8
2022-07-29T03:07:31.364Z,998.8
2022-07-29T03:10:36.693Z,998.8
2022-07-29T03:13:04.932Z,998.8
2022-07-29T03:15:33.161Z,998.8
2022-07-29T03:18:38.482Z,998.8
2022-07-29T03:21:06.761Z,998.8
2022-07-29T03:23:35.374Z,998.8
2022-07-29T03:26:03.266Z,998.8
2022-07-29T03:28:31.479Z,998.8
2022-07-29T03:31:36.855Z,998.8
2022-07-29T03:33:56.857Z,998.8
2022-07-29T03:36:25.084Z,998.8
2022-07-29T03:39:30.371Z,998.8
2022-07-29T03:42:35.714Z,998.8
2022-07-29T03:45:04.029Z,998.8
2022-07-29T03:47:35.535Z,998.9
2022-07-29T03:50:37.505Z,998.8
2022-07-29T03:53:05.800Z,998.8
2022-07-29T03:55:34.012Z,998.8
2022-07-29T03:58:02.244Z,998.8
2022-07-29T04:03:35.896Z,998.8
2022-07-29T04:06:04.073Z,998.8
2022-07-29T04:08:32.348Z,998.9
2022-07-29T04:11:56.950Z,998.8
2022-07-29T04:14:05.919Z,998.8
2022-07-29T04:16:34.283Z,998.9
2022-07-29T04:19:02.396Z,998.9
2022-07-29T04:21:30.617Z,998.7
2022-07-29T04:24:35.968Z,999
2022-07-29T04:27:04.273Z,998.9
2022-07-29T04:29:32.444Z,999
2022-07-29T04:32:29.550Z,999
2022-07-29T04:35:36.804Z,999
2022-07-29T04:38:03.100Z,999
2022-07-29T04:40:31.318Z,999
2022-07-29T04:43:36.860Z,999.1
2022-07-29T04:46:04.996Z,999
2022-07-29T04:48:33.181Z,999
2022-07-29T04:51:01.376Z,999
2022-07-29T04:53:29.643Z,999
2022-07-29T04:56:35.132Z,999.1
2022-07-29T04:59:03.230Z,999
2022-07-29T05:01:31.572Z,999
2022-07-29T05:04:36.785Z,999
2022-07-29T05:07:05.001Z,999.1
2022-07-29T05:09:33.276Z,999
2022-07-29T05:12:01.503Z,999
2022-07-29T05:14:29.745Z,999
2022-07-29T05:17:35.089Z,999.1
2022-07-29T05:20:03.315Z,999.1
2022-07-29T05:22:31.571Z,999.1
2022-07-29T05:25:40.927Z,999.1
2022-07-29T05:28:05.144Z,999
2022-07-29T05:30:33.425Z,999.1
2022-07-29T05:33:38.675Z,999.1
2022-07-29T05:36:00.720Z,999.2
2022-07-29T05:38:27.017Z,999.1
2022-07-29T05:41:32.349Z,999.1
2022-07-29T05:44:37.582Z,999.1
2022-07-29T05:47:05.851Z,999.1
2022-07-29T05:49:34.113Z,999.1
2022-07-29T05:52:02.339Z,999.1
2022-07-29T05:54:30.571Z,999
2022-07-29T05:57:35.930Z,999.2
2022-07-29T06:00:04.163Z,999.2
2022-07-29T06:02:32.405Z,999.2
2022-07-29T06:05:00.726Z,999.2
2022-07-29T06:07:28.877Z,999.3
2022-07-29T06:10:34.581Z,999.3
2022-07-29T06:13:02.488Z,999.4
2022-07-29T06:15:30.742Z,999.2
2022-07-29T06:18:36.058Z,999.4
2022-07-29T06:21:04.335Z,999.5
2022-07-29T06:23:32.520Z,999.4
2022-07-29T06:26:39.936Z,999.4
2022-07-29T06:29:06.090Z,999.4
2022-07-29T06:31:34.329Z,999.4
2022-07-29T06:34:31.406Z,999.5
2022-07-29T06:37:36.778Z,999.5
2022-07-29T06:40:05.006Z,999.5
2022-07-29T06:42:33.267Z,999.5
2022-07-29T06:45:03.942Z,999.5
2022-07-29T06:48:06.839Z,999.5
2022-07-29T06:50:35.039Z,999.6
2022-07-29T06:53:03.354Z,999.6
2022-07-29T06:55:31.573Z,999.7
2022-07-29T06:58:36.882Z,999.7
2022-07-29T07:01:05.125Z,999.7
2022-07-29T07:03:33.355Z,999.6
2022-07-29T07:06:01.636Z,999.6
2022-07-29T07:08:29.852Z,999.6
2022-07-29T07:11:35.155Z,999.7
2022-07-29T07:14:04.210Z,999.7
2022-07-29T07:16:31.723Z,999.8
2022-07-29T07:19:36.990Z,999.8
2022-07-29T07:22:05.196Z,999.8
2022-07-29T07:24:33.535Z,999.7
2022-07-29T07:27:01.730Z,998.8
2022-07-29T07:30:07.041Z,999.8
2022-07-29T07:32:35.241Z,999.8
2022-07-29T07:35:03.524Z,999.8
2022-07-29T07:37:31.783Z,999.8
2022-07-29T07:40:37.095Z,999.8
2022-07-29T07:43:05.299Z,999.8
2022-07-29T07:45:33.674Z,999.8
2022-07-29T07:47:53.701Z,999.8
2022-07-29T07:50:22.007Z,999.8
2022-07-29T07:53:27.190Z,999.8
2022-07-29T07:56:35.234Z,999.8
2022-07-29T07:59:37.797Z,999.7
2022-07-29T08:02:06.126Z,999.7
2022-07-29T08:04:34.323Z,999.7
2022-07-29T08:07:02.534Z,999.7
2022-07-29T08:09:30.928Z,999.6
2022-07-29T08:12:36.120Z,999.8
2022-07-29T08:15:04.387Z,999.8
2022-07-29T08:17:35.291Z,999.8
2022-07-29T08:20:37.969Z,999.8
2022-07-29T08:23:06.149Z,999.8
2022-07-29T08:25:34.698Z,999.8
2022-07-29T08:28:02.632Z,999.8
2022-07-29T08:30:30.897Z,999.8
2022-07-29T08:33:36.265Z,999.9
2022-07-29T08:36:04.472Z,999.9
2022-07-29T08:38:32.750Z,999.9
2022-07-29T08:41:38.030Z,999.8
2022-07-29T08:44:30.360Z,999.8
2022-07-29T08:47:20.002Z,999.8
2022-07-29T08:50:25.361Z,999.9
2022-07-29T08:53:30.616Z,999.8
2022-07-29T08:55:58.895Z,999.9
2022-07-29T08:58:27.125Z,999.9
2022-07-29T09:00:55.819Z,999.9
2022-07-29T09:03:23.701Z,999.9
2022-07-29T09:06:28.898Z,1000
2022-07-29T09:08:57.201Z,999.9
2022-07-29T09:11:25.489Z,1000
2022-07-29T09:14:30.711Z,1000
2022-07-29T09:16:59.049Z,1000
2022-07-29T09:19:27.256Z,999.9
2022-07-29T09:21:55.481Z,999.7
2022-07-29T09:25:00.786Z,1000
2022-07-29T09:27:29.017Z,999.9
2022-07-29T09:29:57.293Z,1000
2022-07-29T09:32:25.552Z,1000
2022-07-29T09:35:30.842Z,999.9
2022-07-29T09:37:59.097Z,1000
2022-07-29T09:40:27.339Z,1000
2022-07-29T09:42:55.621Z,999.9
2022-07-29T09:45:23.861Z,999.9
2022-07-29T09:48:20.970Z,999.9
2022-07-29T09:51:37.942Z,999.9
2022-07-29T09:53:54.537Z,999.9
2022-07-29T09:56:22.801Z,999.9
2022-07-29T09:59:28.104Z,999.9
2022-07-29T10:01:56.626Z,999.9
2022-07-29T10:04:24.557Z,999.7
2022-07-29T10:07:29.894Z,999.8
2022-07-29T10:09:58.122Z,999.8
2022-07-29T10:12:26.404Z,999.8
2022-07-29T10:15:31.713Z,999.8
2022-07-29T10:17:59.936Z,999.8
2022-07-29T10:20:28.215Z,999.7
2022-07-29T10:22:56.479Z,999.9
2022-07-29T10:26:01.760Z,999.8
2022-07-29T10:28:29.975Z,999.7
2022-07-29T10:30:58.276Z,999.8
2022-07-29T10:33:26.501Z,999.7
2022-07-29T10:35:54.794Z,999.7
2022-07-29T10:38:24.706Z,999.7
2022-07-29T10:41:28.981Z,999.6
2022-07-29T10:43:56.582Z,999.8
2022-07-29T10:46:24.875Z,999.6
2022-07-29T10:49:58.976Z,999.6
2022-07-29T10:52:30.217Z,999.5
2022-07-29T10:54:55.466Z,999.6
2022-07-29T10:58:00.805Z,999.5
2022-07-29T11:00:29.055Z,999.5
2022-07-29T11:02:57.364Z,999.4
2022-07-29T11:05:31.974Z,999.4
2022-07-29T11:08:30.835Z,999.5
2022-07-29T11:10:59.068Z,999.4
2022-07-29T11:13:27.339Z,999.4
2022-07-29T11:15:55.620Z,999.4
2022-07-29T11:18:23.895Z,999.3
2022-07-29T11:21:36.010Z,999.4
2022-07-29T11:23:57.396Z,999.4
2022-07-29T11:26:25.657Z,999.4
2022-07-29T11:29:30.975Z,999.4
2022-07-29T11:31:59.496Z,999.5
2022-07-29T11:34:27.916Z,999.5
2022-07-29T11:36:55.999Z,999.4
2022-07-29T11:39:23.953Z,999.4
2022-07-29T11:42:32.691Z,999.4
2022-07-29T11:44:57.541Z,999.4
2022-07-29T11:47:54.673Z,999.4
2022-07-29T11:50:22.896Z,999.4
2022-07-29T11:53:28.679Z,999.4
2022-07-29T11:55:56.420Z,999.4
2022-07-29T11:58:24.925Z,999.3
2022-07-29T12:01:30.026Z,999.3
2022-07-29T12:03:58.308Z,999.3
2022-07-29T12:06:26.483Z,999.3
2022-07-29T12:09:32.972Z,999.3
2022-07-29T12:12:04.719Z,999.3
2022-07-29T12:14:28.286Z,999.3
2022-07-29T12:16:56.640Z,999.5
2022-07-29T12:19:24.818Z,999.4
2022-07-29T12:23:07.173Z,999.4
2022-07-29T12:27:28.642Z,999.4
2022-07-29T12:29:54.864Z,999.4
2022-07-29T12:32:23.158Z,999.4
2022-07-29T12:35:28.436Z,999.3
2022-07-29T12:37:56.617Z,999.3
2022-07-29T12:40:24.885Z,999.3
2022-07-29T12:44:07.313Z,999.2
2022-07-29T12:48:18.491Z,999.2
2022-07-29T12:51:23.834Z,999.2
2022-07-29T12:54:29.161Z,999.2
2022-07-29T12:56:57.358Z,999.2
2022-07-29T12:59:25.643Z,999.1
2022-07-29T13:03:08.368Z,999.1
2022-07-29T13:06:13.368Z,999
2022-07-29T13:09:18.670Z,999.1
2022-07-29T13:12:23.941Z,999.1
2022-07-29T13:15:29.307Z,999.1
2022-07-29T13:17:57.508Z,999.2
2022-07-29T13:20:25.717Z,999.1
2022-07-29T13:23:31.081Z,999.2
2022-07-29T13:25:59.293Z,999.2
2022-07-29T13:28:27.540Z,999.2
2022-07-29T13:30:55.848Z,999.2
2022-07-29T13:33:24.064Z,999.1
2022-07-29T13:36:29.342Z,999.1
2022-07-29T13:38:57.609Z,999.1
2022-07-29T13:41:25.953Z,999.1
2022-07-29T13:44:31.156Z,999.1
2022-07-29T13:46:59.668Z,999
2022-07-29T13:49:19.501Z,999
2022-07-29T13:52:24.788Z,999.1
2022-07-29T13:55:30.109Z,999
2022-07-29T13:57:58.361Z,999
2022-07-29T14:00:26.574Z,999
2022-07-29T14:03:31.915Z,998.9
2022-07-29T14:06:00.185Z,998.9
2022-07-29T14:08:28.426Z,998.8
2022-07-29T14:10:56.614Z,999.2
2022-07-29T14:13:26.396Z,998.8
2022-07-29T14:17:07.781Z,998.9
2022-07-29T14:20:12.588Z,998.9
2022-07-29T14:23:17.909Z,998.9
2022-07-29T14:26:24.171Z,998.9
2022-07-29T14:29:35.318Z,998.9
2022-07-29T14:31:56.986Z,998.9
2022-07-29T14:34:24.991Z,998.8
2022-07-29T14:37:39.097Z,998.8
2022-07-29T14:39:58.575Z,998.8
2022-07-29T14:42:26.788Z,998.8
2022-07-29T14:44:55.032Z,998.8
2022-07-29T14:47:23.314Z,998.8
2022-07-29T14:50:23.259Z,998.8
2022-07-29T14:53:25.753Z,998.8
2022-07-29T14:56:36.786Z,998.8
2022-07-29T14:58:59.274Z,998.8
2022-07-29T15:01:27.677Z,998.9
2022-07-29T15:03:59.384Z,998.9
2022-07-29T15:06:24.042Z,998.8
2022-07-29T15:09:29.351Z,998.8
2022-07-29T15:11:57.782Z,998.8
2022-07-29T15:14:25.824Z,998.8
2022-07-29T15:17:31.150Z,998.8
2022-07-29T15:19:59.389Z,998.8
2022-07-29T15:22:27.672Z,998.8
2022-07-29T15:24:55.891Z,998.8
2022-07-29T15:27:24.147Z,998.9
2022-07-29T15:30:33.074Z,998.9
2022-07-29T15:32:57.691Z,998.9
2022-07-29T15:35:25.957Z,998.8
2022-07-29T15:38:31.290Z,998.9
2022-07-29T15:40:59.518Z,998.8
2022-07-29T15:43:27.765Z,998.8
2022-07-29T15:45:56.034Z,998.9
2022-07-29T15:48:24.250Z,998.9
2022-07-29T15:51:21.364Z,998.9
2022-07-29T15:54:26.697Z,998.9
2022-07-29T15:57:31.997Z,998.9
2022-07-29T16:00:00.283Z,999
2022-07-29T16:02:28.474Z,998.8
2022-07-29T16:04:56.716Z,998.8
2022-07-29T16:07:24.967Z,998.9
2022-07-29T16:11:07.374Z,998.7
2022-07-29T16:14:12.644Z,998.8
2022-07-29T16:17:17.975Z,998.8
2022-07-29T16:20:23.288Z,998.8
2022-07-29T16:23:28.625Z,998.7
2022-07-29T16:25:59.948Z,998.7
2022-07-29T16:28:25.136Z,998.7
2022-07-29T16:31:30.406Z,998.7
2022-07-29T16:33:58.675Z,998.7
2022-07-29T16:36:26.889Z,998.7
2022-07-29T16:38:55.163Z,998.7
2022-07-29T16:41:23.412Z,998.7
2022-07-29T16:44:28.728Z,998.6
2022-07-29T16:46:57.039Z,998.6
2022-07-29T16:49:54.114Z,998.6
2022-07-29T16:52:22.312Z,998.6
2022-07-29T16:55:27.652Z,998.6
2022-07-29T16:57:55.859Z,998.6
2022-07-29T17:00:24.137Z,998.6
2022-07-29T17:03:29.433Z,998.6
2022-07-29T17:05:57.684Z,998.6
2022-07-29T17:08:25.963Z,998.6
2022-07-29T17:11:52.100Z,998.6
2022-07-29T17:13:59.524Z,998.6
2022-07-29T17:16:27.915Z,998.7
2022-07-29T17:18:56.080Z,998.7
2022-07-29T17:21:24.262Z,998.7
2022-07-29T17:24:29.550Z,998.8
2022-07-29T17:26:58.034Z,998.7
2022-07-29T17:29:26.113Z,998.8
2022-07-29T17:32:31.415Z,998.7
2022-07-29T17:34:59.615Z,998.8
2022-07-29T17:37:27.874Z,998.8
2022-07-29T17:40:00.018Z,998.8
2022-07-29T17:42:24.370Z,998.8
2022-07-29T17:45:49.186Z,998.8
2022-07-29T17:47:57.934Z,998.8
2022-07-29T17:50:26.150Z,998.8
2022-07-29T17:53:31.463Z,998.8
2022-07-29T17:55:59.736Z,998.8
2022-07-29T17:58:27.993Z,998.9
2022-07-29T18:00:48.080Z,998.9
2022-07-29T18:03:16.316Z,998.8
2022-07-29T18:06:21.599Z,998.9
2022-07-29T18:09:26.895Z,999
2022-07-29T18:11:55.138Z,999
2022-07-29T18:14:23.362Z,999
2022-07-29T18:17:34.541Z,999
2022-07-29T18:19:57.002Z,999
2022-07-29T18:22:25.197Z,999
2022-07-29T18:25:30.499Z,999
2022-07-29T18:28:00.594Z,999
2022-07-29T18:30:27.006Z,999
2022-07-29T18:33:19.515Z,999
2022-07-29T18:35:23.470Z,999.1
2022-07-29T18:38:28.821Z,999.2
2022-07-29T18:40:57.093Z,999.1
2022-07-29T18:43:25.329Z,999.3
2022-07-29T18:46:30.628Z,999.4
2022-07-29T18:48:58.959Z,999.4
2022-07-29T18:51:27.129Z,999.5
2022-07-29T18:54:32.416Z,999.6
2022-07-29T18:57:00.822Z,999.6
2022-07-29T18:59:28.923Z,999.7
2022-07-29T19:01:49.168Z,999.7
2022-07-29T19:04:17.211Z,999.8
2022-07-29T19:07:22.531Z,999.8
2022-07-29T19:10:27.826Z,999.8
2022-07-29T19:12:56.085Z,999.8
2022-07-29T19:15:24.392Z,999.8
2022-07-29T19:19:01.952Z,999.8
2022-07-29T19:20:57.912Z,999.8
2022-07-29T19:23:26.159Z,999.9
2022-07-29T19:25:54.414Z,999.9
2022-07-29T19:28:22.667Z,999.9
2022-07-29T19:31:28.007Z,1000
2022-07-29T19:33:56.203Z,1000
2022-07-29T19:36:24.462Z,1000.2
2022-07-29T19:39:31.854Z,1000.2
2022-07-29T19:42:01.605Z,1000.3
2022-07-29T19:44:26.241Z,1000.3
2022-07-29T19:47:31.580Z,1000.4
2022-07-29T19:49:59.861Z,1000.4
2022-07-29T19:52:28.081Z,1000.4
2022-07-29T19:54:56.305Z,1000.5
2022-07-29T19:57:24.559Z,1000.3
2022-07-29T20:00:29.877Z,1000.6
2022-07-29T20:02:49.969Z,1000.6
2022-07-29T20:05:18.191Z,1000.7
2022-07-29T20:08:23.501Z,1000.8
2022-07-29T20:11:28.787Z,1000.8
2022-07-29T20:13:57.046Z,1000.8
2022-07-29T20:16:25.412Z,1000.9
2022-07-29T20:19:30.608Z,1000.9
2022-07-29T20:21:58.846Z,1000.9
2022-07-29T20:24:27.147Z,1001
2022-07-29T20:26:55.357Z,1001
2022-07-29T20:29:23.619Z,1001.1
2022-07-29T20:32:28.905Z,1001.1
2022-07-29T20:34:57.172Z,1001.1
2022-07-29T20:37:25.430Z,1001.1
2022-07-29T20:40:30.717Z,1001.1
2022-07-29T20:42:58.969Z,1001.1
2022-07-29T20:45:27.219Z,1001.1
2022-07-29T20:47:55.462Z,1001.1
2022-07-29T20:50:24.133Z,1001.1
2022-07-29T20:53:29.002Z,1001.1
2022-07-29T20:55:57.277Z,1001.1
2022-07-29T20:58:25.503Z,1001.1
2022-07-29T21:00:53.787Z,1001.1
2022-07-29T21:05:05.286Z,1001.1
2022-07-29T21:08:10.324Z,1001.1
2022-07-29T21:11:15.629Z,1001.1
2022-07-29T21:14:20.943Z,1001.1
2022-07-29T21:17:26.285Z,1001.1
2022-07-29T21:20:31.552Z,1001.2
2022-07-29T21:23:00.336Z,1001.1
2022-07-29T21:25:28.074Z,1001.2
2022-07-29T21:27:56.351Z,1001.2
2022-07-29T21:30:24.586Z,1001.2
2022-07-29T21:33:29.889Z,1001.2
2022-07-29T21:36:15.273Z,1001.2
2022-07-29T21:38:26.366Z,1001.3
2022-07-29T21:41:31.694Z,1001.3
2022-07-29T21:43:59.950Z,1001.4
2022-07-29T21:46:28.281Z,1001.4
2022-07-29T21:48:56.420Z,1001.5
2022-07-29T21:51:24.700Z,1001.3
2022-07-29T21:54:29.972Z,1001.6
2022-07-29T21:56:58.229Z,1001.5
2022-07-29T21:59:26.478Z,1001.6
2022-07-29T22:02:23.581Z,1001.6
2022-07-29T22:05:28.930Z,1001.7
2022-07-29T22:07:57.199Z,1001.7
2022-07-29T22:10:25.391Z,1001.7
2022-07-29T22:13:30.691Z,1001.7
2022-07-29T22:15:59.191Z,1001.7
2022-07-29T22:18:27.211Z,1001.7
2022-07-29T22:21:32.533Z,1001.7
2022-07-29T22:24:00.761Z,1001.7
2022-07-29T22:26:29.018Z,1001.7
2022-07-29T22:28:57.345Z,1001.7
2022-07-29T22:31:25.528Z,1001.8
2022-07-29T22:34:37.064Z,1001.8
2022-07-29T22:36:59.424Z,1001.8
2022-07-29T22:39:27.341Z,1001.9
2022-07-29T22:41:55.577Z,1001.9
2022-07-29T22:44:23.796Z,1001.9
2022-07-29T22:47:39.071Z,1001.9
2022-07-29T22:49:57.375Z,1002
2022-07-29T22:52:25.672Z,1002
2022-07-29T22:55:30.923Z,1002
2022-07-29T22:57:59.167Z,1002
2022-07-29T23:00:27.434Z,1002
2022-07-29T23:02:47.673Z,1002
2022-07-29T23:05:15.793Z,1002
2022-07-29T23:08:21.032Z,1002
2022-07-29T23:11:26.365Z,1002.1
2022-07-29T23:14:31.672Z,1002.1
2022-07-29T23:17:00.198Z,1002.2
2022-07-29T23:19:28.161Z,1002.2
2022-07-29T23:21:56.406Z,1002.2
2022-07-29T23:24:24.659Z,1002
2022-07-29T23:27:29.998Z,1002.2
2022-07-29T23:29:58.224Z,1002.2
2022-07-29T23:32:26.457Z,1002.1
2022-07-29T23:35:31.792Z,1002.1
2022-07-29T23:38:00.050Z,1002.1
2022-07-29T23:40:28.281Z,1002.1
2022-07-29T23:42:56.506Z,1002.1
2022-07-29T23:45:32.624Z,1001.8
2022-07-29T23:48:30.081Z,1002
2022-07-29T23:50:58.332Z,1002.1
2022-07-29T23:53:26.551Z,1002
2022-07-29T23:56:31.911Z,1002
2022-07-29T23:59:00.150Z,1002
